sensor_id;sensor_type;location;lat;lon;timestamp;temperature;humidity
74384;DHT22;62824;52.994;-3.936;2022-12-07T00:01:40;3.30;99.90
74384;DHT22;62824;52.994;-3.936;2022-12-07T00:04:10;3.30;99.90
74384;DHT22;62824;52.994;-3.936;2022-12-07T00:06:40;3.30;99.90
74384;DHT22;62824;52.994;-3.936;2022-12-07T00:09:09;3.30;99.90
74384;DHT22;62824;52.994;-3.936;2022-12-07T00:11:35;3.30;99.90
74384;DHT22;62824;52.994;-3.936;2022-12-07T00:14:04;3.40;99.90
74384;DHT22;62824;52.994;-3.936;2022-12-07T00:16:31;3.40;99.90
74384;DHT22;62824;52.994;-3.936;2022-12-07T00:18:58;3.30;99.90
74384;DHT22;62824;52.994;-3.936;2022-12-07T00:21:30;3.30;99.90
74384;DHT22;62824;52.994;-3.936;2022-12-07T00:23:57;3.20;99.90
74384;DHT22;62824;52.994;-3.936;2022-12-07T00:26:28;3.20;99.90
74384;DHT22;62824;52.994;-3.936;2022-12-07T00:28:57;3.10;99.90
74384;DHT22;62824;52.994;-3.936;2022-12-07T00:31:28;3.10;99.90
74384;DHT22;62824;52.994;-3.936;2022-12-07T00:33:55;3.00;99.90
74384;DHT22;62824;52.994;-3.936;2022-12-07T00:36:23;3.00;99.90
74384;DHT22;62824;52.994;-3.936;2022-12-07T00:38:50;3.00;99.90
74384;DHT22;62824;52.994;-3.936;2022-12-07T00:41:20;3.00;99.90
74384;DHT22;62824;52.994;-3.936;2022-12-07T00:43:47;2.90;99.90
74384;DHT22;62824;52.994;-3.936;2022-12-07T00:46:15;2.90;99.90
74384;DHT22;62824;52.994;-3.936;2022-12-07T00:48:41;2.90;99.90
74384;DHT22;62824;52.994;-3.936;2022-12-07T00:51:07;2.90;99.90
74384;DHT22;62824;52.994;-3.936;2022-12-07T00:53:37;2.90;99.90
74384;DHT22;62824;52.994;-3.936;2022-12-07T00:56:12;2.80;99.90
74384;DHT22;62824;52.994;-3.936;2022-12-07T00:58:38;2.90;99.90
74384;DHT22;62824;52.994;-3.936;2022-12-07T01:01:05;2.90;99.90
74384;DHT22;62824;52.994;-3.936;2022-12-07T01:03:31;2.90;99.90
74384;DHT22;62824;52.994;-3.936;2022-12-07T01:05:58;3.00;99.90
74384;DHT22;62824;52.994;-3.936;2022-12-07T01:08:25;2.90;99.90
74384;DHT22;62824;52.994;-3.936;2022-12-07T01:13:25;2.90;99.90
74384;DHT22;62824;52.994;-3.936;2022-12-07T01:15:50;2.90;99.90
74384;DHT22;62824;52.994;-3.936;2022-12-07T01:18:16;2.90;99.90
74384;DHT22;62824;52.994;-3.936;2022-12-07T01:20:42;2.90;99.90
74384;DHT22;62824;52.994;-3.936;2022-12-07T01:23:07;2.80;99.90
74384;DHT22;62824;52.994;-3.936;2022-12-07T01:25:34;2.90;99.90
74384;DHT22;62824;52.994;-3.936;2022-12-07T01:27:59;2.80;99.90
74384;DHT22;62824;52.994;-3.936;2022-12-07T01:30:25;2.80;99.90
74384;DHT22;62824;52.994;-3.936;2022-12-07T01:32:51;2.80;99.90
74384;DHT22;62824;52.994;-3.936;2022-12-07T01:35:17;2.80;99.90
74384;DHT22;62824;52.994;-3.936;2022-12-07T01:37:43;2.80;99.90
74384;DHT22;62824;52.994;-3.936;2022-12-07T01:40:10;2.70;99.90
74384;DHT22;62824;52.994;-3.936;2022-12-07T01:42:35;2.70;99.90
74384;DHT22;62824;52.994;-3.936;2022-12-07T01:45:34;2.70;99.90
74384;DHT22;62824;52.994;-3.936;2022-12-07T01:48:02;2.70;99.90
74384;DHT22;62824;52.994;-3.936;2022-12-07T01:50:29;2.70;99.90
74384;DHT22;62824;52.994;-3.936;2022-12-07T01:52:59;2.70;99.90
74384;DHT22;62824;52.994;-3.936;2022-12-07T01:55:27;2.70;99.90
74384;DHT22;62824;52.994;-3.936;2022-12-07T01:57:54;2.70;99.90
74384;DHT22;62824;52.994;-3.936;2022-12-07T02:00:20;2.70;99.90
74384;DHT22;62824;52.994;-3.936;2022-12-07T02:03:00;2.60;99.90
74384;DHT22;62824;52.994;-3.936;2022-12-07T02:05:29;2.60;99.90
74384;DHT22;62824;52.994;-3.936;2022-12-07T02:07:56;2.60;99.90
74384;DHT22;62824;52.994;-3.936;2022-12-07T02:10:26;2.70;99.90
74384;DHT22;62824;52.994;-3.936;2022-12-07T02:12:55;2.70;99.90
74384;DHT22;62824;52.994;-3.936;2022-12-07T02:15:51;2.70;99.90
74384;DHT22;62824;52.994;-3.936;2022-12-07T02:21:10;2.70;99.90
74384;DHT22;62824;52.994;-3.936;2022-12-07T02:29:14;2.70;99.90
74384;DHT22;62824;52.994;-3.936;2022-12-07T02:32:15;2.60;99.90
74384;DHT22;62824;52.994;-3.936;2022-12-07T02:35:06;2.60;99.90
74384;DHT22;62824;52.994;-3.936;2022-12-07T02:37:44;2.60;99.90
74384;DHT22;62824;52.994;-3.936;2022-12-07T02:43:25;2.70;99.90
74384;DHT22;62824;52.994;-3.936;2022-12-07T02:45:53;2.70;99.90
74384;DHT22;62824;52.994;-3.936;2022-12-07T02:48:20;2.70;99.90
74384;DHT22;62824;52.994;-3.936;2022-12-07T02:50:51;2.80;99.90
74384;DHT22;62824;52.994;-3.936;2022-12-07T02:55:55;2.70;99.90
74384;DHT22;62824;52.994;-3.936;2022-12-07T03:01:39;2.60;99.90
74384;DHT22;62824;52.994;-3.936;2022-12-07T03:04:17;2.60;99.90
74384;DHT22;62824;52.994;-3.936;2022-12-07T03:07:00;2.60;99.90
74384;DHT22;62824;52.994;-3.936;2022-12-07T03:09:28;2.60;99.90
74384;DHT22;62824;52.994;-3.936;2022-12-07T03:12:10;2.70;99.90
74384;DHT22;62824;52.994;-3.936;2022-12-07T03:14:41;2.70;99.90
74384;DHT22;62824;52.994;-3.936;2022-12-07T03:17:15;2.70;99.90
74384;DHT22;62824;52.994;-3.936;2022-12-07T03:19:43;2.70;99.90
74384;DHT22;62824;52.994;-3.936;2022-12-07T03:22:12;2.70;99.90
74384;DHT22;62824;52.994;-3.936;2022-12-07T03:24:55;2.60;99.90
74384;DHT22;62824;52.994;-3.936;2022-12-07T03:27:30;2.50;99.90
74384;DHT22;62824;52.994;-3.936;2022-12-07T03:30:32;2.50;99.90
74384;DHT22;62824;52.994;-3.936;2022-12-07T03:33:12;2.40;99.90
74384;DHT22;62824;52.994;-3.936;2022-12-07T03:35:45;2.40;99.90
74384;DHT22;62824;52.994;-3.936;2022-12-07T03:38:49;2.50;99.90
74384;DHT22;62824;52.994;-3.936;2022-12-07T03:41:28;2.50;99.90
74384;DHT22;62824;52.994;-3.936;2022-12-07T03:43:55;2.50;99.90
74384;DHT22;62824;52.994;-3.936;2022-12-07T03:49:25;2.40;99.90
74384;DHT22;62824;52.994;-3.936;2022-12-07T03:54:38;2.40;99.90
74384;DHT22;62824;52.994;-3.936;2022-12-07T03:57:08;2.40;99.90
74384;DHT22;62824;52.994;-3.936;2022-12-07T03:59:34;2.50;99.90
74384;DHT22;62824;52.994;-3.936;2022-12-07T04:02:06;2.40;99.90
74384;DHT22;62824;52.994;-3.936;2022-12-07T04:04:33;2.50;99.90
74384;DHT22;62824;52.994;-3.936;2022-12-07T04:06:59;2.50;99.90
74384;DHT22;62824;52.994;-3.936;2022-12-07T04:09:26;2.50;99.90
74384;DHT22;62824;52.994;-3.936;2022-12-07T04:11:52;2.50;99.90
74384;DHT22;62824;52.994;-3.936;2022-12-07T04:14:18;2.50;99.90
74384;DHT22;62824;52.994;-3.936;2022-12-07T04:16:54;2.50;99.90
74384;DHT22;62824;52.994;-3.936;2022-12-07T04:19:27;2.50;99.90
74384;DHT22;62824;52.994;-3.936;2022-12-07T04:21:54;2.50;99.90
74384;DHT22;62824;52.994;-3.936;2022-12-07T04:24:20;2.50;99.90
74384;DHT22;62824;52.994;-3.936;2022-12-07T04:26:46;2.50;99.90
74384;DHT22;62824;52.994;-3.936;2022-12-07T04:29:13;2.50;99.90
74384;DHT22;62824;52.994;-3.936;2022-12-07T04:31:39;2.50;99.90
74384;DHT22;62824;52.994;-3.936;2022-12-07T04:34:05;2.60;99.90
74384;DHT22;62824;52.994;-3.936;2022-12-07T04:36:32;2.60;99.90
74384;DHT22;62824;52.994;-3.936;2022-12-07T04:38:57;2.70;99.90
74384;DHT22;62824;52.994;-3.936;2022-12-07T04:41:24;2.70;99.90
74384;DHT22;62824;52.994;-3.936;2022-12-07T04:43:57;2.70;99.90
74384;DHT22;62824;52.994;-3.936;2022-12-07T04:46:24;2.70;99.90
74384;DHT22;62824;52.994;-3.936;2022-12-07T04:48:51;2.70;99.90
74384;DHT22;62824;52.994;-3.936;2022-12-07T04:51:23;2.70;99.90
74384;DHT22;62824;52.994;-3.936;2022-12-07T04:53:50;2.80;99.90
74384;DHT22;62824;52.994;-3.936;2022-12-07T04:56:16;2.80;99.90
74384;DHT22;62824;52.994;-3.936;2022-12-07T04:58:43;2.80;99.90
74384;DHT22;62824;52.994;-3.936;2022-12-07T05:01:10;2.70;99.90
74384;DHT22;62824;52.994;-3.936;2022-12-07T05:03:36;2.70;99.90
74384;DHT22;62824;52.994;-3.936;2022-12-07T05:06:03;2.70;99.90
74384;DHT22;62824;52.994;-3.936;2022-12-07T05:08:29;2.70;99.90
74384;DHT22;62824;52.994;-3.936;2022-12-07T05:10:54;2.70;99.90
74384;DHT22;62824;52.994;-3.936;2022-12-07T05:13:20;2.60;99.90
74384;DHT22;62824;52.994;-3.936;2022-12-07T05:15:47;2.60;99.90
74384;DHT22;62824;52.994;-3.936;2022-12-07T05:18:14;2.60;99.90
74384;DHT22;62824;52.994;-3.936;2022-12-07T05:20:40;2.50;99.90
74384;DHT22;62824;52.994;-3.936;2022-12-07T05:23:06;2.50;99.90
74384;DHT22;62824;52.994;-3.936;2022-12-07T05:25:32;2.50;99.90
74384;DHT22;62824;52.994;-3.936;2022-12-07T05:27:58;2.50;99.90
74384;DHT22;62824;52.994;-3.936;2022-12-07T05:30:24;2.50;99.90
74384;DHT22;62824;52.994;-3.936;2022-12-07T05:32:51;2.50;99.90
74384;DHT22;62824;52.994;-3.936;2022-12-07T05:35:17;2.40;99.90
74384;DHT22;62824;52.994;-3.936;2022-12-07T05:37:43;2.50;99.90
74384;DHT22;62824;52.994;-3.936;2022-12-07T05:40:11;2.40;99.90
74384;DHT22;62824;52.994;-3.936;2022-12-07T05:42:37;2.30;99.90
74384;DHT22;62824;52.994;-3.936;2022-12-07T05:45:03;2.40;99.90
74384;DHT22;62824;52.994;-3.936;2022-12-07T05:47:29;2.30;99.90
74384;DHT22;62824;52.994;-3.936;2022-12-07T05:49:55;2.40;99.90
74384;DHT22;62824;52.994;-3.936;2022-12-07T05:52:21;2.40;99.90
74384;DHT22;62824;52.994;-3.936;2022-12-07T05:54:47;2.40;99.90
74384;DHT22;62824;52.994;-3.936;2022-12-07T05:57:13;2.40;99.90
74384;DHT22;62824;52.994;-3.936;2022-12-07T05:59:38;2.40;99.90
74384;DHT22;62824;52.994;-3.936;2022-12-07T06:02:09;2.50;99.90
74384;DHT22;62824;52.994;-3.936;2022-12-07T06:04:38;2.50;99.90
74384;DHT22;62824;52.994;-3.936;2022-12-07T06:07:05;2.60;99.90
74384;DHT22;62824;52.994;-3.936;2022-12-07T06:09:31;2.60;99.90
74384;DHT22;62824;52.994;-3.936;2022-12-07T06:11:57;2.60;99.90
74384;DHT22;62824;52.994;-3.936;2022-12-07T06:14:42;2.70;99.90
74384;DHT22;62824;52.994;-3.936;2022-12-07T06:17:08;2.80;99.90
74384;DHT22;62824;52.994;-3.936;2022-12-07T06:19:34;2.90;99.90
74384;DHT22;62824;52.994;-3.936;2022-12-07T06:22:01;2.90;99.90
74384;DHT22;62824;52.994;-3.936;2022-12-07T06:24:27;2.90;99.90
74384;DHT22;62824;52.994;-3.936;2022-12-07T06:26:52;3.00;99.90
74384;DHT22;62824;52.994;-3.936;2022-12-07T06:29:19;3.00;99.90
74384;DHT22;62824;52.994;-3.936;2022-12-07T06:31:45;2.90;99.90
74384;DHT22;62824;52.994;-3.936;2022-12-07T06:34:13;2.80;99.90
74384;DHT22;62824;52.994;-3.936;2022-12-07T06:36:39;2.80;99.90
74384;DHT22;62824;52.994;-3.936;2022-12-07T06:39:06;2.80;99.90
74384;DHT22;62824;52.994;-3.936;2022-12-07T06:41:32;2.80;99.90
74384;DHT22;62824;52.994;-3.936;2022-12-07T06:43:57;2.80;99.90
74384;DHT22;62824;52.994;-3.936;2022-12-07T06:46:23;2.80;99.90
74384;DHT22;62824;52.994;-3.936;2022-12-07T06:48:49;2.80;99.90
74384;DHT22;62824;52.994;-3.936;2022-12-07T06:51:15;2.80;99.90
74384;DHT22;62824;52.994;-3.936;2022-12-07T06:53:41;2.80;99.90
74384;DHT22;62824;52.994;-3.936;2022-12-07T06:56:07;2.80;99.90
74384;DHT22;62824;52.994;-3.936;2022-12-07T06:58:33;2.80;99.90
74384;DHT22;62824;52.994;-3.936;2022-12-07T07:00:59;2.80;99.90
74384;DHT22;62824;52.994;-3.936;2022-12-07T07:03:25;2.70;99.90
74384;DHT22;62824;52.994;-3.936;2022-12-07T07:05:50;2.70;99.90
74384;DHT22;62824;52.994;-3.936;2022-12-07T07:08:16;2.70;99.90
74384;DHT22;62824;52.994;-3.936;2022-12-07T07:10:42;2.60;99.90
74384;DHT22;62824;52.994;-3.936;2022-12-07T07:13:08;2.70;99.90
74384;DHT22;62824;52.994;-3.936;2022-12-07T07:15:34;2.70;99.90
74384;DHT22;62824;52.994;-3.936;2022-12-07T07:18:01;2.80;99.90
74384;DHT22;62824;52.994;-3.936;2022-12-07T07:20:27;2.90;99.90
74384;DHT22;62824;52.994;-3.936;2022-12-07T07:22:56;2.90;99.90
74384;DHT22;62824;52.994;-3.936;2022-12-07T07:25:22;3.00;99.90
74384;DHT22;62824;52.994;-3.936;2022-12-07T07:27:48;3.10;99.90
74384;DHT22;62824;52.994;-3.936;2022-12-07T07:30:14;3.10;99.90
74384;DHT22;62824;52.994;-3.936;2022-12-07T07:32:40;3.10;99.90
74384;DHT22;62824;52.994;-3.936;2022-12-07T07:35:06;3.20;99.90
74384;DHT22;62824;52.994;-3.936;2022-12-07T07:37:31;3.20;99.90
74384;DHT22;62824;52.994;-3.936;2022-12-07T07:39:57;3.30;99.90
74384;DHT22;62824;52.994;-3.936;2022-12-07T07:42:23;3.30;99.90
74384;DHT22;62824;52.994;-3.936;2022-12-07T07:44:49;3.30;99.90
74384;DHT22;62824;52.994;-3.936;2022-12-07T07:47:14;3.20;99.90
74384;DHT22;62824;52.994;-3.936;2022-12-07T07:49:40;3.20;99.90
74384;DHT22;62824;52.994;-3.936;2022-12-07T07:52:06;3.20;99.90
74384;DHT22;62824;52.994;-3.936;2022-12-07T07:54:32;3.20;99.90
74384;DHT22;62824;52.994;-3.936;2022-12-07T07:56:58;3.20;99.90
74384;DHT22;62824;52.994;-3.936;2022-12-07T07:59:24;3.30;99.90
74384;DHT22;62824;52.994;-3.936;2022-12-07T08:01:50;3.30;99.90
74384;DHT22;62824;52.994;-3.936;2022-12-07T08:04:16;3.30;99.90
74384;DHT22;62824;52.994;-3.936;2022-12-07T08:06:42;3.30;99.90
74384;DHT22;62824;52.994;-3.936;2022-12-07T08:09:08;3.30;99.90
74384;DHT22;62824;52.994;-3.936;2022-12-07T08:11:35;3.30;99.90
74384;DHT22;62824;52.994;-3.936;2022-12-07T08:14:02;3.40;99.90
74384;DHT22;62824;52.994;-3.936;2022-12-07T08:16:28;3.30;99.90
74384;DHT22;62824;52.994;-3.936;2022-12-07T08:18:53;3.30;99.90
74384;DHT22;62824;52.994;-3.936;2022-12-07T08:21:19;3.40;99.90
74384;DHT22;62824;52.994;-3.936;2022-12-07T08:23:45;3.40;99.90
74384;DHT22;62824;52.994;-3.936;2022-12-07T08:26:13;3.40;99.90
74384;DHT22;62824;52.994;-3.936;2022-12-07T08:28:39;3.30;99.90
74384;DHT22;62824;52.994;-3.936;2022-12-07T08:31:08;3.30;99.90
74384;DHT22;62824;52.994;-3.936;2022-12-07T08:33:35;3.30;99.90
74384;DHT22;62824;52.994;-3.936;2022-12-07T08:36:02;3.30;99.90
74384;DHT22;62824;52.994;-3.936;2022-12-07T08:38:28;3.20;99.90
74384;DHT22;62824;52.994;-3.936;2022-12-07T08:40:58;3.20;99.90
74384;DHT22;62824;52.994;-3.936;2022-12-07T08:43:24;3.20;99.90
74384;DHT22;62824;52.994;-3.936;2022-12-07T08:46:13;3.20;99.90
74384;DHT22;62824;52.994;-3.936;2022-12-07T08:51:18;3.30;99.90
74384;DHT22;62824;52.994;-3.936;2022-12-07T08:53:45;3.40;99.90
74384;DHT22;62824;52.994;-3.936;2022-12-07T08:56:11;3.40;99.90
74384;DHT22;62824;52.994;-3.936;2022-12-07T08:58:38;3.40;99.90
74384;DHT22;62824;52.994;-3.936;2022-12-07T09:01:04;3.40;99.90
74384;DHT22;62824;52.994;-3.936;2022-12-07T09:03:30;3.40;99.90
74384;DHT22;62824;52.994;-3.936;2022-12-07T09:05:57;3.50;99.90
74384;DHT22;62824;52.994;-3.936;2022-12-07T09:08:29;3.50;99.90
74384;DHT22;62824;52.994;-3.936;2022-12-07T09:10:56;3.50;99.90
74384;DHT22;62824;52.994;-3.936;2022-12-07T09:13:22;3.50;99.90
74384;DHT22;62824;52.994;-3.936;2022-12-07T09:15:49;3.60;99.90
74384;DHT22;62824;52.994;-3.936;2022-12-07T09:18:15;3.60;99.90
74384;DHT22;62824;52.994;-3.936;2022-12-07T09:20:41;3.70;99.90
74384;DHT22;62824;52.994;-3.936;2022-12-07T09:23:07;3.70;99.90
74384;DHT22;62824;52.994;-3.936;2022-12-07T09:25:34;3.70;99.90
74384;DHT22;62824;52.994;-3.936;2022-12-07T09:28:00;3.80;99.90
74384;DHT22;62824;52.994;-3.936;2022-12-07T09:30:27;3.80;99.90
74384;DHT22;62824;52.994;-3.936;2022-12-07T09:32:54;3.80;99.90
74384;DHT22;62824;52.994;-3.936;2022-12-07T09:35:20;3.80;99.90
74384;DHT22;62824;52.994;-3.936;2022-12-07T09:37:46;3.80;99.90
74384;DHT22;62824;52.994;-3.936;2022-12-07T09:40:13;3.80;99.90
74384;DHT22;62824;52.994;-3.936;2022-12-07T09:42:43;3.90;99.90
74384;DHT22;62824;52.994;-3.936;2022-12-07T09:45:18;3.90;99.90
74384;DHT22;62824;52.994;-3.936;2022-12-07T09:47:45;3.90;99.90
74384;DHT22;62824;52.994;-3.936;2022-12-07T09:50:20;3.90;99.90
74384;DHT22;62824;52.994;-3.936;2022-12-07T09:52:47;4.00;99.90
74384;DHT22;62824;52.994;-3.936;2022-12-07T09:55:21;4.10;99.90
74384;DHT22;62824;52.994;-3.936;2022-12-07T09:57:48;4.10;99.20
74384;DHT22;62824;52.994;-3.936;2022-12-07T10:00:19;4.10;99.70
74384;DHT22;62824;52.994;-3.936;2022-12-07T10:02:52;4.10;99.90
74384;DHT22;62824;52.994;-3.936;2022-12-07T10:05:21;4.10;99.90
74384;DHT22;62824;52.994;-3.936;2022-12-07T10:07:48;4.20;99.70
74384;DHT22;62824;52.994;-3.936;2022-12-07T10:10:41;4.70;98.90
74384;DHT22;62824;52.994;-3.936;2022-12-07T10:15:53;4.60;96.00
74384;DHT22;62824;52.994;-3.936;2022-12-07T10:18:32;4.60;96.30
74384;DHT22;62824;52.994;-3.936;2022-12-07T10:23:34;4.60;96.30
74384;DHT22;62824;52.994;-3.936;2022-12-07T10:26:24;4.60;95.90
74384;DHT22;62824;52.994;-3.936;2022-12-07T10:28:52;4.80;95.90
74384;DHT22;62824;52.994;-3.936;2022-12-07T10:31:20;5.10;94.30
74384;DHT22;62824;52.994;-3.936;2022-12-07T10:36:21;5.20;92.30
74384;DHT22;62824;52.994;-3.936;2022-12-07T10:38:58;5.40;92.30
74384;DHT22;62824;52.994;-3.936;2022-12-07T10:41:25;5.50;91.40
74384;DHT22;62824;52.994;-3.936;2022-12-07T10:43:53;5.40;91.70
74384;DHT22;62824;52.994;-3.936;2022-12-07T10:51:56;5.00;93.00
74384;DHT22;62824;52.994;-3.936;2022-12-07T11:03:32;5.10;94.50
74384;DHT22;62824;52.994;-3.936;2022-12-07T11:14:03;5.10;92.80
74384;DHT22;62824;52.994;-3.936;2022-12-07T11:16:33;5.10;93.50
74384;DHT22;62824;52.994;-3.936;2022-12-07T11:21:57;5.10;94.00
74384;DHT22;62824;52.994;-3.936;2022-12-07T11:25:02;5.10;93.80
74384;DHT22;62824;52.994;-3.936;2022-12-07T11:28:20;5.10;93.60
74384;DHT22;62824;52.994;-3.936;2022-12-07T11:31:36;5.10;92.80
74384;DHT22;62824;52.994;-3.936;2022-12-07T11:34:08;5.20;92.70
74384;DHT22;62824;52.994;-3.936;2022-12-07T11:36:45;5.30;93.00
74384;DHT22;62824;52.994;-3.936;2022-12-07T11:41:47;5.40;91.50
74384;DHT22;62824;52.994;-3.936;2022-12-07T11:49:42;5.50;90.30
74384;DHT22;62824;52.994;-3.936;2022-12-07T11:52:22;5.50;89.40
74384;DHT22;62824;52.994;-3.936;2022-12-07T11:54:52;5.60;89.10
74384;DHT22;62824;52.994;-3.936;2022-12-07T11:57:32;5.60;87.80
74384;DHT22;62824;52.994;-3.936;2022-12-07T12:00:04;5.50;89.40
74384;DHT22;62824;52.994;-3.936;2022-12-07T12:02:42;5.50;88.30
74384;DHT22;62824;52.994;-3.936;2022-12-07T12:05:18;5.50;86.60
74384;DHT22;62824;52.994;-3.936;2022-12-07T12:07:46;5.50;87.00
74384;DHT22;62824;52.994;-3.936;2022-12-07T12:18:53;5.70;82.00
74384;DHT22;62824;52.994;-3.936;2022-12-07T12:21:28;5.70;80.50
74384;DHT22;62824;52.994;-3.936;2022-12-07T12:24:04;5.70;80.80
74384;DHT22;62824;52.994;-3.936;2022-12-07T12:26:33;5.90;79.30
74384;DHT22;62824;52.994;-3.936;2022-12-07T12:29:04;5.90;77.50
74384;DHT22;62824;52.994;-3.936;2022-12-07T12:31:39;5.90;74.10
74384;DHT22;62824;52.994;-3.936;2022-12-07T12:34:56;5.70;75.90
74384;DHT22;62824;52.994;-3.936;2022-12-07T12:42:45;5.60;83.80
74384;DHT22;62824;52.994;-3.936;2022-12-07T12:45:23;5.60;85.20
74384;DHT22;62824;52.994;-3.936;2022-12-07T12:53:04;5.40;85.50
74384;DHT22;62824;52.994;-3.936;2022-12-07T13:03:34;5.30;90.90
74384;DHT22;62824;52.994;-3.936;2022-12-07T13:06:31;5.40;90.70
74384;DHT22;62824;52.994;-3.936;2022-12-07T13:08:59;5.30;89.50
74384;DHT22;62824;52.994;-3.936;2022-12-07T13:16:59;5.30;91.40
74384;DHT22;62824;52.994;-3.936;2022-12-07T13:20:01;5.30;91.30
74384;DHT22;62824;52.994;-3.936;2022-12-07T13:25:07;5.40;91.70
74384;DHT22;62824;52.994;-3.936;2022-12-07T13:27:36;5.30;90.80
74384;DHT22;62824;52.994;-3.936;2022-12-07T13:30:25;5.10;91.50
74384;DHT22;62824;52.994;-3.936;2022-12-07T13:32:55;5.10;92.30
74384;DHT22;62824;52.994;-3.936;2022-12-07T13:37:54;5.00;94.20
74384;DHT22;62824;52.994;-3.936;2022-12-07T13:40:21;5.00;95.40
74384;DHT22;62824;52.994;-3.936;2022-12-07T13:42:47;4.90;96.40
74384;DHT22;62824;52.994;-3.936;2022-12-07T13:45:26;4.90;96.40
74384;DHT22;62824;52.994;-3.936;2022-12-07T13:48:46;4.80;98.40
74384;DHT22;62824;52.994;-3.936;2022-12-07T13:51:26;4.80;99.90
74384;DHT22;62824;52.994;-3.936;2022-12-07T13:53:55;4.70;99.90
74384;DHT22;62824;52.994;-3.936;2022-12-07T13:56:24;4.50;99.90
74384;DHT22;62824;52.994;-3.936;2022-12-07T13:58:51;4.50;99.90
74384;DHT22;62824;52.994;-3.936;2022-12-07T14:01:17;4.40;99.90
74384;DHT22;62824;52.994;-3.936;2022-12-07T14:03:44;4.50;99.90
74384;DHT22;62824;52.994;-3.936;2022-12-07T14:06:20;4.50;99.90
74384;DHT22;62824;52.994;-3.936;2022-12-07T14:08:47;4.60;99.90
74384;DHT22;62824;52.994;-3.936;2022-12-07T14:11:18;4.80;99.90
74384;DHT22;62824;52.994;-3.936;2022-12-07T14:13:59;4.90;99.90
74384;DHT22;62824;52.994;-3.936;2022-12-07T14:16:36;5.00;99.90
74384;DHT22;62824;52.994;-3.936;2022-12-07T14:19:04;5.10;99.40
74384;DHT22;62824;52.994;-3.936;2022-12-07T14:21:34;5.10;99.90
74384;DHT22;62824;52.994;-3.936;2022-12-07T14:24:17;5.10;99.90
74384;DHT22;62824;52.994;-3.936;2022-12-07T14:26:45;5.20;99.00
74384;DHT22;62824;52.994;-3.936;2022-12-07T14:31:48;5.00;97.00
74384;DHT22;62824;52.994;-3.936;2022-12-07T14:34:14;5.00;97.40
74384;DHT22;62824;52.994;-3.936;2022-12-07T14:36:40;5.00;97.50
74384;DHT22;62824;52.994;-3.936;2022-12-07T14:39:05;5.00;96.90
74384;DHT22;62824;52.994;-3.936;2022-12-07T14:41:31;5.00;98.10
74384;DHT22;62824;52.994;-3.936;2022-12-07T14:44:16;5.00;96.90
74384;DHT22;62824;52.994;-3.936;2022-12-07T14:46:42;5.00;95.40
74384;DHT22;62824;52.994;-3.936;2022-12-07T14:49:07;5.00;95.30
74384;DHT22;62824;52.994;-3.936;2022-12-07T14:51:33;4.90;96.00
74384;DHT22;62824;52.994;-3.936;2022-12-07T14:54:01;4.90;96.00
74384;DHT22;62824;52.994;-3.936;2022-12-07T14:56:27;5.00;97.10
74384;DHT22;62824;52.994;-3.936;2022-12-07T14:58:53;5.00;96.30
74384;DHT22;62824;52.994;-3.936;2022-12-07T15:01:19;5.00;95.90
74384;DHT22;62824;52.994;-3.936;2022-12-07T15:03:45;5.00;98.50
74384;DHT22;62824;52.994;-3.936;2022-12-07T15:06:14;4.90;99.90
74384;DHT22;62824;52.994;-3.936;2022-12-07T15:08:40;4.90;99.00
74384;DHT22;62824;52.994;-3.936;2022-12-07T15:11:05;4.80;99.00
74384;DHT22;62824;52.994;-3.936;2022-12-07T15:13:31;4.80;99.90
74384;DHT22;62824;52.994;-3.936;2022-12-07T15:16:19;4.70;99.80
74384;DHT22;62824;52.994;-3.936;2022-12-07T15:18:46;4.70;99.30
74384;DHT22;62824;52.994;-3.936;2022-12-07T15:21:15;4.80;99.60
74384;DHT22;62824;52.994;-3.936;2022-12-07T15:23:42;4.80;99.90
74384;DHT22;62824;52.994;-3.936;2022-12-07T15:26:10;4.90;99.90
74384;DHT22;62824;52.994;-3.936;2022-12-07T15:28:36;4.90;99.90
74384;DHT22;62824;52.994;-3.936;2022-12-07T15:31:02;4.90;99.90
74384;DHT22;62824;52.994;-3.936;2022-12-07T15:33:28;4.90;99.90
74384;DHT22;62824;52.994;-3.936;2022-12-07T15:35:54;4.90;99.90
74384;DHT22;62824;52.994;-3.936;2022-12-07T15:38:19;4.90;99.90
74384;DHT22;62824;52.994;-3.936;2022-12-07T15:40:48;4.80;99.90
74384;DHT22;62824;52.994;-3.936;2022-12-07T15:43:14;4.90;99.90
74384;DHT22;62824;52.994;-3.936;2022-12-07T15:45:59;4.80;99.90
74384;DHT22;62824;52.994;-3.936;2022-12-07T15:48:25;4.80;99.90
74384;DHT22;62824;52.994;-3.936;2022-12-07T15:50:51;4.80;99.90
74384;DHT22;62824;52.994;-3.936;2022-12-07T15:53:17;4.80;99.90
74384;DHT22;62824;52.994;-3.936;2022-12-07T15:55:42;4.80;99.90
74384;DHT22;62824;52.994;-3.936;2022-12-07T15:58:08;4.80;99.90
74384;DHT22;62824;52.994;-3.936;2022-12-07T16:00:38;4.80;99.90
74384;DHT22;62824;52.994;-3.936;2022-12-07T16:03:04;4.80;99.90
74384;DHT22;62824;52.994;-3.936;2022-12-07T16:05:36;4.80;99.90
74384;DHT22;62824;52.994;-3.936;2022-12-07T16:08:05;4.80;99.90
74384;DHT22;62824;52.994;-3.936;2022-12-07T16:10:31;4.80;99.90
74384;DHT22;62824;52.994;-3.936;2022-12-07T16:12:57;4.80;99.90
74384;DHT22;62824;52.994;-3.936;2022-12-07T16:15:26;4.80;99.90
74384;DHT22;62824;52.994;-3.936;2022-12-07T16:17:54;4.80;99.90
74384;DHT22;62824;52.994;-3.936;2022-12-07T16:20:21;4.80;99.90
74384;DHT22;62824;52.994;-3.936;2022-12-07T16:22:46;4.80;99.90
74384;DHT22;62824;52.994;-3.936;2022-12-07T16:25:12;4.90;99.90
74384;DHT22;62824;52.994;-3.936;2022-12-07T16:27:38;4.90;99.90
74384;DHT22;62824;52.994;-3.936;2022-12-07T16:30:05;4.90;99.60
74384;DHT22;62824;52.994;-3.936;2022-12-07T16:32:31;4.90;99.40
74384;DHT22;62824;52.994;-3.936;2022-12-07T16:34:57;4.80;99.90
74384;DHT22;62824;52.994;-3.936;2022-12-07T16:37:23;4.80;99.90
74384;DHT22;62824;52.994;-3.936;2022-12-07T16:39:49;4.70;99.90
74384;DHT22;62824;52.994;-3.936;2022-12-07T16:42:14;4.70;99.90
74384;DHT22;62824;52.994;-3.936;2022-12-07T16:44:40;4.60;99.90
74384;DHT22;62824;52.994;-3.936;2022-12-07T16:47:07;4.50;99.90
74384;DHT22;62824;52.994;-3.936;2022-12-07T16:49:32;4.50;99.90
74384;DHT22;62824;52.994;-3.936;2022-12-07T16:51:58;4.50;99.90
74384;DHT22;62824;52.994;-3.936;2022-12-07T16:54:24;4.50;99.90
74384;DHT22;62824;52.994;-3.936;2022-12-07T16:56:49;4.50;99.90
74384;DHT22;62824;52.994;-3.936;2022-12-07T16:59:16;4.50;99.90
74384;DHT22;62824;52.994;-3.936;2022-12-07T17:01:41;4.50;99.90
74384;DHT22;62824;52.994;-3.936;2022-12-07T17:04:08;4.50;99.90
74384;DHT22;62824;52.994;-3.936;2022-12-07T17:06:56;4.50;99.90
74384;DHT22;62824;52.994;-3.936;2022-12-07T17:09:21;4.50;99.90
74384;DHT22;62824;52.994;-3.936;2022-12-07T17:11:47;4.50;99.90
74384;DHT22;62824;52.994;-3.936;2022-12-07T17:14:13;4.50;99.90
74384;DHT22;62824;52.994;-3.936;2022-12-07T17:16:57;4.50;99.90
74384;DHT22;62824;52.994;-3.936;2022-12-07T17:19:23;4.50;98.70
74384;DHT22;62824;52.994;-3.936;2022-12-07T17:21:49;4.60;97.50
74384;DHT22;62824;52.994;-3.936;2022-12-07T17:24:16;4.70;95.50
74384;DHT22;62824;52.994;-3.936;2022-12-07T17:26:44;4.60;93.30
74384;DHT22;62824;52.994;-3.936;2022-12-07T17:29:13;4.60;93.00
74384;DHT22;62824;52.994;-3.936;2022-12-07T17:31:39;4.60;94.00
74384;DHT22;62824;52.994;-3.936;2022-12-07T17:34:11;4.60;94.30
74384;DHT22;62824;52.994;-3.936;2022-12-07T17:36:38;4.60;94.20